Time;durP1;ratioP1;P1;durP2;ratioP2;P2;SDS_P1;SDS_P2;PMS_P1;PMS_P2;Temp;Humidity;BMP_temperature;BMP_pressure;BME280_temperature;BME280_humidity;BME280_pressure;Samples;Min_cycle;Max_cycle;Signal;HPM_P1;HPM_P2
2023/08/29 00:06:10;;;;;;;;;;;12.10;99.90;;;;;;21020111;28;19912;-76
2023/08/29 00:16:16;;;;;;;;;;;12.10;99.90;;;;;;20987995;28;20389;-77
2023/08/29 00:26:16;;;;;;;;;;;12.00;99.90;;;;;;21009922;28;19991;-77
2023/08/29 00:36:19;;;;;;;;;;;12.00;99.90;;;;;;20982712;28;19916;-77
2023/08/29 00:46:20;;;;;;;;;;;12.00;99.90;;;;;;21020787;28;19920;-78
2023/08/29 00:56:20;;;;;;;;;;;12.00;99.90;;;;;;21002653;28;20063;-77
2023/08/29 01:06:21;;;;;;;;;;;12.00;99.90;;;;;;21010685;28;19995;-77
2023/08/29 01:16:26;;;;;;;;;;;11.90;99.90;;;;;;20987468;28;20363;-77
2023/08/29 01:26:27;;;;;;;;;;;11.90;99.90;;;;;;20981768;28;19928;-77
2023/08/29 01:36:41;;;;;;;;;;;11.80;99.90;;;;;;21005748;28;19917;-77
2023/08/29 01:46:42;;;;;;;;;;;11.90;99.90;;;;;;20987394;28;19919;-78
2023/08/29 01:56:43;;;;;;;;;;;11.80;99.90;;;;;;20989022;28;20006;-77
2023/08/29 02:06:43;;;;;;;;;;;11.80;99.90;;;;;;20987324;28;19917;-76
2023/08/29 02:16:44;;;;;;;;;;;11.80;99.90;;;;;;20993965;28;20342;-77
2023/08/29 02:26:48;;;;;;;;;;;11.80;99.90;;;;;;21004873;28;19991;-77
2023/08/29 02:36:52;;;;;;;;;;;11.70;99.90;;;;;;20982195;28;20375;-77
2023/08/29 02:46:53;;;;;;;;;;;11.70;99.90;;;;;;21001741;28;20011;-77
2023/08/29 02:56:54;;;;;;;;;;;11.70;99.90;;;;;;21050380;28;19923;-77
2023/08/29 03:06:55;;;;;;;;;;;11.70;99.90;;;;;;21045343;28;19920;-75
2023/08/29 03:16:57;;;;;;;;;;;11.60;99.90;;;;;;20980059;28;19991;-77
2023/08/29 03:26:58;;;;;;;;;;;11.60;99.90;;;;;;20985277;28;19916;-76
2023/08/29 03:36:58;;;;;;;;;;;11.50;99.90;;;;;;20999414;28;20302;-75
2023/08/29 03:46:59;;;;;;;;;;;11.40;99.90;;;;;;21009353;28;19935;-77
2023/08/29 03:57:00;;;;;;;;;;;11.40;99.90;;;;;;21014683;28;20436;-77
2023/08/29 04:07:01;;;;;;;;;;;11.40;99.90;;;;;;21028882;28;19920;-77
2023/08/29 04:17:02;;;;;;;;;;;11.30;99.90;;;;;;21050515;28;19916;-76
2023/08/29 04:27:03;;;;;;;;;;;11.20;99.90;;;;;;21102110;28;19969;-76
2023/08/29 04:37:04;;;;;;;;;;;11.20;99.90;;;;;;21071997;28;19927;-76
2023/08/29 04:47:04;;;;;;;;;;;11.10;99.90;;;;;;21009767;28;20299;-77
2023/08/29 04:57:05;;;;;;;;;;;11.20;99.90;;;;;;21006570;28;19939;-76
2023/08/29 05:07:06;;;;;;;;;;;11.10;99.90;;;;;;20967678;28;19923;-76
2023/08/29 05:17:08;;;;;;;;;;;11.20;99.90;;;;;;20983675;28;19916;-75
2023/08/29 05:27:09;;;;;;;;;;;11.20;99.90;;;;;;20984387;28;20023;-76
2023/08/29 05:37:10;;;;;;;;;;;11.30;99.90;;;;;;20998951;28;19948;-76
2023/08/29 05:47:10;;;;;;;;;;;11.40;99.90;;;;;;21002243;28;19929;-77
2023/08/29 05:57:11;;;;;;;;;;;11.50;99.90;;;;;;20981645;28;19917;-77
2023/08/29 06:07:12;;;;;;;;;;;11.50;99.90;;;;;;20991803;28;19912;-76
2023/08/29 06:17:13;;;;;;;;;;;11.60;99.90;;;;;;20994819;28;20338;-75
2023/08/29 06:27:13;;;;;;;;;;;11.70;99.90;;;;;;20991988;28;19917;-76
2023/08/29 06:37:14;;;;;;;;;;;11.80;99.90;;;;;;20975336;28;19916;-76
2023/08/29 06:47:15;;;;;;;;;;;11.80;99.90;;;;;;20986871;28;19913;-76
2023/08/29 06:57:16;;;;;;;;;;;11.90;99.90;;;;;;20996660;28;19978;-76
2023/08/29 07:07:16;;;;;;;;;;;12.00;99.90;;;;;;20989258;28;19916;-76
2023/08/29 07:17:17;;;;;;;;;;;12.00;99.90;;;;;;20988870;28;20323;-77
2023/08/29 07:27:18;;;;;;;;;;;12.10;99.90;;;;;;21005477;28;19939;-77
2023/08/29 07:37:18;;;;;;;;;;;12.20;99.90;;;;;;21011615;28;19970;-77
2023/08/29 07:47:19;;;;;;;;;;;12.30;99.90;;;;;;21004790;28;19913;-77
2023/08/29 07:57:19;;;;;;;;;;;12.30;99.90;;;;;;21004174;28;20358;-77
2023/08/29 08:07:20;;;;;;;;;;;12.30;99.90;;;;;;21002615;28;19952;-77
2023/08/29 08:17:21;;;;;;;;;;;12.40;99.90;;;;;;21002515;28;19968;-75
2023/08/29 08:27:22;;;;;;;;;;;12.80;99.90;;;;;;20984335;28;20336;-76
2023/08/29 08:37:23;;;;;;;;;;;12.70;99.90;;;;;;21005926;28;19916;-76
2023/08/29 08:47:23;;;;;;;;;;;13.10;99.90;;;;;;20990663;28;19913;-77
2023/08/29 08:57:24;;;;;;;;;;;13.10;99.90;;;;;;20990334;28;19924;-76
2023/08/29 09:07:25;;;;;;;;;;;13.00;99.90;;;;;;21003217;28;20441;-77
2023/08/29 09:17:26;;;;;;;;;;;13.20;99.90;;;;;;20966029;28;20381;-77
2023/08/29 09:27:26;;;;;;;;;;;13.20;99.90;;;;;;21002143;28;20123;-77
2023/08/29 09:37:29;;;;;;;;;;;13.40;99.90;;;;;;21000060;28;19923;-76
2023/08/29 09:47:29;;;;;;;;;;;13.70;99.90;;;;;;20997022;28;19913;-77
2023/08/29 09:57:33;;;;;;;;;;;13.80;99.90;;;;;;20994455;28;20065;-77
2023/08/29 10:07:45;;;;;;;;;;;14.00;99.90;;;;;;20979224;28;19912;-76
2023/08/29 10:17:47;;;;;;;;;;;14.30;99.90;;;;;;20998535;28;20318;-76
2023/08/29 10:27:48;;;;;;;;;;;14.00;99.90;;;;;;21004235;28;19975;-77
2023/08/29 10:37:52;;;;;;;;;;;14.00;99.90;;;;;;21004620;28;19935;-77
2023/08/29 10:47:53;;;;;;;;;;;14.10;99.90;;;;;;20998567;28;19912;-77
2023/08/29 10:57:58;;;;;;;;;;;14.00;99.90;;;;;;21026463;28;19923;-77
2023/08/29 11:08:17;;;;;;;;;;;14.20;99.90;;;;;;21009558;28;19920;-77
2023/08/29 11:18:24;;;;;;;;;;;14.30;99.90;;;;;;21016026;28;20375;-77
2023/08/29 11:28:25;;;;;;;;;;;14.40;99.90;;;;;;21015774;28;19916;-77
2023/08/29 11:38:28;;;;;;;;;;;14.40;99.90;;;;;;20991896;28;20317;-77
2023/08/29 11:48:30;;;;;;;;;;;14.40;99.90;;;;;;20969801;28;19913;-77
2023/08/29 11:58:31;;;;;;;;;;;14.40;99.90;;;;;;20997440;28;19916;-78
2023/08/29 12:08:42;;;;;;;;;;;14.50;99.90;;;;;;21010143;28;20338;-74
2023/08/29 12:18:43;;;;;;;;;;;14.50;99.90;;;;;;20985696;28;19916;-77
2023/08/29 12:28:43;;;;;;;;;;;14.60;99.90;;;;;;21012129;28;19924;-76
2023/08/29 12:38:44;;;;;;;;;;;14.40;99.90;;;;;;21003506;28;20031;-76
2023/08/29 12:48:44;;;;;;;;;;;14.40;99.90;;;;;;20990883;28;20383;-78
2023/08/29 12:58:45;;;;;;;;;;;14.40;99.90;;;;;;21020334;28;20294;-77
2023/08/29 13:08:46;;;;;;;;;;;14.50;99.90;;;;;;21017698;28;20435;-77
2023/08/29 13:18:47;;;;;;;;;;;14.30;99.90;;;;;;21006413;28;19927;-75
2023/08/29 13:28:48;;;;;;;;;;;14.50;99.90;;;;;;21004623;28;19956;-78
2023/08/29 13:38:48;;;;;;;;;;;14.60;99.90;;;;;;21013329;28;19923;-77
2023/08/29 13:48:49;;;;;;;;;;;14.60;99.90;;;;;;21011749;28;19913;-77
2023/08/29 13:58:51;;;;;;;;;;;14.60;99.90;;;;;;21008349;28;20207;-77
2023/08/29 14:08:52;;;;;;;;;;;14.60;99.90;;;;;;20979820;28;19920;-76
2023/08/29 14:18:53;;;;;;;;;;;14.70;99.90;;;;;;21005765;28;19923;-76
2023/08/29 14:28:53;;;;;;;;;;;14.70;99.90;;;;;;20968116;28;19916;-76
2023/08/29 14:38:54;;;;;;;;;;;14.80;99.90;;;;;;21004597;28;19917;-77
2023/08/29 14:48:56;;;;;;;;;;;14.90;99.90;;;;;;21002690;28;19913;-77
2023/08/29 14:58:57;;;;;;;;;;;15.20;99.90;;;;;;20942991;28;20012;-76
2023/08/29 15:08:58;;;;;;;;;;;15.20;99.90;;;;;;20954164;28;19913;-77
2023/08/29 15:18:59;;;;;;;;;;;15.60;99.90;;;;;;20978620;28;20304;-77
2023/08/29 15:29:00;;;;;;;;;;;15.50;99.90;;;;;;21015801;28;19956;-76
2023/08/29 15:39:00;;;;;;;;;;;15.40;99.90;;;;;;21004577;28;19916;-76
2023/08/29 15:49:01;;;;;;;;;;;15.50;99.90;;;;;;21024947;28;20338;-77
2023/08/29 15:59:01;;;;;;;;;;;14.90;99.90;;;;;;20993173;28;19928;-78
2023/08/29 16:09:03;;;;;;;;;;;14.80;99.90;;;;;;21010145;28;19991;-77
2023/08/29 16:19:03;;;;;;;;;;;14.70;99.90;;;;;;20996526;28;19916;-77
2023/08/29 16:29:04;;;;;;;;;;;14.80;99.90;;;;;;21013053;28;20327;-77
2023/08/29 16:39:08;;;;;;;;;;;14.80;99.90;;;;;;20999506;28;19939;-78
2023/08/29 16:49:09;;;;;;;;;;;14.70;99.90;;;;;;21030823;28;20014;-77
2023/08/29 16:59:10;;;;;;;;;;;14.50;99.90;;;;;;21013718;28;19916;-78
2023/08/29 17:09:11;;;;;;;;;;;14.40;99.90;;;;;;20987156;28;19913;-77
2023/08/29 17:19:12;;;;;;;;;;;14.30;99.90;;;;;;21016730;28;19917;-77
2023/08/29 17:29:12;;;;;;;;;;;14.20;99.90;;;;;;20989378;28;20372;-76
2023/08/29 17:39:13;;;;;;;;;;;14.00;99.90;;;;;;20978945;28;20140;-76
2023/08/29 17:49:14;;;;;;;;;;;13.90;99.90;;;;;;20987936;28;19916;-76
2023/08/29 17:59:15;;;;;;;;;;;13.80;99.90;;;;;;20993680;28;19923;-76
2023/08/29 18:09:18;;;;;;;;;;;13.70;99.90;;;;;;21004215;28;20283;-76
2023/08/29 18:19:19;;;;;;;;;;;13.70;99.90;;;;;;20987880;28;19938;-76
2023/08/29 18:29:19;;;;;;;;;;;13.60;99.90;;;;;;20998634;28;19917;-77
2023/08/29 18:39:21;;;;;;;;;;;13.50;99.90;;;;;;21000721;28;20409;-76
2023/08/29 18:49:22;;;;;;;;;;;13.50;99.90;;;;;;21000033;28;19913;-76
2023/08/29 18:59:22;;;;;;;;;;;13.50;99.90;;;;;;20982916;28;19924;-76
2023/08/29 19:09:23;;;;;;;;;;;13.50;99.90;;;;;;21017927;28;19920;-78
2023/08/29 19:19:24;;;;;;;;;;;13.50;99.90;;;;;;21020386;28;19970;-77
2023/08/29 19:29:24;;;;;;;;;;;13.60;99.90;;;;;;21036459;28;19922;-77
2023/08/29 19:39:25;;;;;;;;;;;13.40;99.90;;;;;;21021605;28;19931;-78
2023/08/29 19:49:26;;;;;;;;;;;13.40;99.90;;;;;;21039891;28;19952;-77
2023/08/29 19:59:27;;;;;;;;;;;13.40;99.90;;;;;;21017794;28;19923;-77
2023/08/29 20:09:27;;;;;;;;;;;13.40;99.90;;;;;;21013393;28;20004;-77
2023/08/29 20:19:28;;;;;;;;;;;13.30;99.90;;;;;;21007054;28;19917;-76
2023/08/29 20:29:28;;;;;;;;;;;13.30;99.90;;;;;;21021099;28;20251;-77
2023/08/29 20:39:31;;;;;;;;;;;13.40;99.90;;;;;;21007558;28;19980;-77
2023/08/29 20:49:31;;;;;;;;;;;13.50;99.90;;;;;;21030062;28;19913;-78
2023/08/29 20:59:32;;;;;;;;;;;13.40;99.90;;;;;;21019538;28;19923;-77
2023/08/29 21:09:33;;;;;;;;;;;13.40;99.90;;;;;;21020311;28;20011;-75
2023/08/29 21:19:34;;;;;;;;;;;13.50;99.90;;;;;;21022692;28;19916;-77
2023/08/29 21:29:34;;;;;;;;;;;13.30;99.90;;;;;;20976804;28;19978;-77
2023/08/29 21:39:36;;;;;;;;;;;13.20;99.90;;;;;;20999930;28;19916;-76
2023/08/29 21:49:37;;;;;;;;;;;13.20;99.90;;;;;;20975086;28;20455;-75
2023/08/29 21:59:37;;;;;;;;;;;13.20;99.90;;;;;;20994040;28;19951;-76
2023/08/29 22:09:38;;;;;;;;;;;13.10;99.90;;;;;;20977348;28;19974;-76
2023/08/29 22:19:39;;;;;;;;;;;12.90;99.90;;;;;;21036571;28;19916;-76
2023/08/29 22:29:40;;;;;;;;;;;12.90;99.90;;;;;;21003162;28;20259;-76
2023/08/29 22:39:41;;;;;;;;;;;13.00;99.90;;;;;;20959608;28;19923;-76
2023/08/29 22:49:43;;;;;;;;;;;12.90;99.90;;;;;;21066538;28;19913;-76
2023/08/29 22:59:43;;;;;;;;;;;12.90;99.90;;;;;;21002735;28;19978;-76
2023/08/29 23:09:44;;;;;;;;;;;12.90;99.90;;;;;;20994144;28;19958;-76
2023/08/29 23:19:44;;;;;;;;;;;12.80;99.90;;;;;;20981343;28;20366;-77
2023/08/29 23:29:45;;;;;;;;;;;12.60;99.90;;;;;;20990835;28;19917;-75
2023/08/29 23:39:46;;;;;;;;;;;12.50;99.90;;;;;;20989719;28;20005;-76
2023/08/29 23:49:46;;;;;;;;;;;12.60;99.90;;;;;;20988258;28;20394;-76
2023/08/29 23:59:47;;;;;;;;;;;12.70;99.90;;;;;;20991128;28;20568;-76
